Fair Oaks, Arkansas
Current Conditions -  °F | °C
As of 12:56 PM on Tuesday 21 Oct 2014 (Local Time) from KM19 Reporting Station
Clear Clear  
Wind Chill: 75°   Ceiling: Unl
Heat Index: 75°   Visibility: 10mi
Dew Point: 47°   Wind: 13mph
Humidity: 37%   Direction: 350°N
Pressure: 30.11"   Gusts: 18mph
Location:  35.2139°N, 91.1509°W
Report Text: KM19 211756Z AUTO 35011G16KT 10SM CLR 24/08 A3011 RMK AO2 58006 60002 T02380083 10233 20105 SLP194
Loading
Personal Weather Stations






























Interactive Weather Map
Tropical Storm Tracking
New forecast layout! Learn more

10-Day Weather Forecast

Advertisements
Track Severe Weather on mobile